Time;durP1;ratioP1;P1;durP2;ratioP2;P2;SDS_P1;SDS_P2;PMS_P1;PMS_P2;Temp;Humidity;BMP_temperature;BMP_pressure;BME280_temperature;BME280_humidity;BME280_pressure;Samples;Min_cycle;Max_cycle;Signal;HPM_P1;HPM_P2
2022/10/18 00:00:42;;;;;;;;;3.67;3.67;;;;;23.87;49.68;102283.91;5077384;27;45772;-79
2022/10/18 00:03:07;;;;;;;;;5.33;3.00;;;;;23.87;49.69;102287.41;5077426;27;45552;-78
2022/10/18 00:05:33;;;;;;;;;5.33;3.67;;;;;23.87;49.48;102281.25;5077009;27;45336;-79
2022/10/18 00:07:58;;;;;;;;;2.33;2.33;;;;;23.79;49.53;102271.41;5073180;27;45378;-79
2022/10/18 00:10:24;;;;;;;;;3.00;3.00;;;;;23.83;49.33;102281.59;5065884;27;45468;-79
2022/10/18 00:12:50;;;;;;;;;4.00;3.33;;;;;23.87;49.54;102292.72;5076641;27;45350;-79
2022/10/18 00:15:16;;;;;;;;;3.67;3.67;;;;;23.87;49.41;102298.06;5077017;27;45361;-79
2022/10/18 00:17:41;;;;;;;;;7.00;4.00;;;;;23.88;49.57;102296.22;5076640;27;45902;-79
2022/10/18 00:20:08;;;;;;;;;4.00;4.00;;;;;23.86;49.52;102293.75;5076366;27;45480;-79
2022/10/18 00:22:35;;;;;;;;;4.00;2.00;;;;;23.87;49.08;102298.06;5076660;27;45301;-78
2022/10/18 00:25:01;;;;;;;;;2.67;2.67;;;;;23.84;49.38;102304.50;5076586;27;45392;-79
2022/10/18 00:27:28;;;;;;;;;2.67;2.67;;;;;23.87;49.31;102303.38;5076399;27;46370;-79
2022/10/18 00:29:54;;;;;;;;;5.33;3.00;;;;;23.87;49.51;102305.19;5076329;27;45508;-79
2022/10/18 00:32:19;;;;;;;;;7.00;4.00;;;;;23.85;49.78;102295.56;5076662;27;45633;-78
2022/10/18 00:34:45;;;;;;;;;4.67;4.67;;;;;23.87;49.42;102302.53;5076638;27;45358;-78
2022/10/18 00:37:10;;;;;;;;;4.00;3.00;;;;;23.86;49.13;102285.78;5075999;27;46775;-78
2022/10/18 00:39:35;;;;;;;;;5.00;4.00;;;;;23.84;49.54;102296.53;5076787;27;45441;-78
2022/10/18 00:42:02;;;;;;;;;4.00;4.00;;;;;23.80;49.30;102297.00;5076627;27;45447;-79
2022/10/18 00:44:27;;;;;;;;;3.33;2.00;;;;;23.86;49.42;102312.34;5076881;27;46119;-79
2022/10/18 00:46:58;;;;;;;;;4.67;4.67;;;;;23.85;49.65;102305.34;5075800;27;46149;-79
2022/10/18 00:49:31;;;;;;;;;3.00;3.00;;;;;23.85;49.34;102305.34;5076398;27;45455;-79
2022/10/18 00:52:02;;;;;;;;;3.00;3.00;;;;;23.77;49.60;102302.63;5075573;27;45324;-78
2022/10/18 00:54:30;;;;;;;;;4.33;3.00;;;;;23.85;49.79;102318.63;5076305;27;45374;-79
2022/10/18 00:56:55;;;;;;;;;4.00;4.00;;;;;23.84;49.46;102322.28;5076034;27;46100;-79
2022/10/18 00:59:22;;;;;;;;;2.67;2.67;;;;;23.84;49.44;102323.13;5075944;27;45626;-79
2022/10/18 01:01:47;;;;;;;;;2.33;2.00;;;;;23.73;49.71;102310.91;5075730;27;45344;-79
2022/10/18 01:04:14;;;;;;;;;4.33;3.00;;;;;23.84;49.29;102332.91;5076060;27;45458;-79
2022/10/18 01:06:49;;;;;;;;;5.00;4.00;;;;;23.85;49.77;102327.47;5075623;28;46251;-80
2022/10/18 01:09:30;;;;;;;;;5.67;2.00;;;;;23.86;49.19;102336.28;5057956;27;45332;-79
2022/10/18 01:12:13;;;;;;;;;6.00;4.33;;;;;23.87;49.30;102339.75;5055822;27;45434;-79
2022/10/18 01:15:01;;;;;;;;;3.67;3.67;;;;;23.86;49.32;102330.94;5071668;27;45362;-79
2022/10/18 01:17:38;;;;;;;;;3.00;3.00;;;;;23.85;49.36;102331.94;5075712;27;45267;-79
2022/10/18 01:20:25;;;;;;;;;3.67;3.00;;;;;23.86;49.55;102336.28;5075198;27;45429;-79
2022/10/18 01:22:59;;;;;;;;;3.00;3.00;;;;;23.77;49.64;102318.59;5089482;27;45481;-79
2022/10/18 01:26:00;;;;;;;;;2.33;2.33;;;;;23.87;49.51;102335.25;5055964;27;45418;-78
2022/10/18 01:28:55;;;;;;;;;4.67;3.00;;;;;23.86;49.39;102328.28;5072757;28;46347;-79
2022/10/18 01:31:24;;;;;;;;;4.00;4.00;;;;;23.87;49.19;102334.41;5075653;27;45389;-79
2022/10/18 01:34:01;;;;;;;;;2.00;2.00;;;;;23.86;49.85;102336.28;5075734;27;45313;-79
2022/10/18 01:36:40;;;;;;;;;3.33;2.67;;;;;23.82;49.55;102332.25;5075312;27;45443;-78
2022/10/18 01:39:13;;;;;;;;;3.00;3.00;;;;;23.87;49.81;102335.25;5062682;27;47313;-79
2022/10/18 01:41:42;;;;;;;;;5.00;5.00;;;;;23.87;49.52;102331.75;5075356;27;45451;-79
2022/10/18 01:44:11;;;;;;;;;4.33;2.00;;;;;23.86;49.42;102328.28;5075545;27;45406;-79
2022/10/18 01:46:40;;;;;;;;;3.33;1.33;;;;;23.86;49.27;102330.94;5075436;27;45410;-79
2022/10/18 01:49:06;;;;;;;;;5.33;3.00;;;;;23.86;49.72;102325.63;5074734;27;46483;-79
2022/10/18 01:51:32;;;;;;;;;3.00;3.00;;;;;23.86;49.58;102325.63;5075289;27;45463;-79
2022/10/18 01:53:58;;;;;;;;;3.00;3.00;;;;;23.85;49.26;102323.97;5075179;27;45313;-78
2022/10/18 01:57:02;;;;;;;;;5.00;3.00;;;;;23.85;49.50;102322.13;5075297;27;45450;-79
2022/10/18 01:59:46;;;;;;;;;5.00;4.00;;;;;23.85;49.32;102322.13;5072893;28;45473;-79
2022/10/18 02:02:42;;;;;;;;;2.00;2.00;;;;;23.85;49.76;102321.31;5072637;28;45406;-79
2022/10/18 02:05:39;;;;;;;;;2.67;2.67;;;;;23.85;49.89;102324.78;5072882;28;45443;-79
2022/10/18 02:08:33;;;;;;;;;3.33;3.00;;;;;23.84;48.98;102328.44;5072682;28;45371;-79
2022/10/18 02:11:05;;;;;;;;;2.67;2.67;;;;;23.84;49.31;102325.78;5072944;27;46249;-79
2022/10/18 02:13:59;;;;;;;;;3.33;2.67;;;;;23.84;49.37;102315.16;5072851;27;45360;-79
2022/10/18 02:16:31;;;;;;;;;3.00;3.00;;;;;23.84;49.68;102331.09;5076471;27;45427;-78
2022/10/18 02:19:01;;;;;;;;;3.00;3.00;;;;;23.74;49.78;102317.91;5076123;27;45628;-79
2022/10/18 02:21:29;;;;;;;;;4.67;4.00;;;;;23.84;49.34;102333.75;5075937;27;46276;-79
2022/10/18 02:23:58;;;;;;;;;3.00;3.00;;;;;23.84;49.49;102343.53;5076007;27;45530;-79
2022/10/18 02:26:23;;;;;;;;;3.00;3.00;;;;;23.82;49.79;102334.91;5076289;27;45413;-78
2022/10/18 02:28:49;;;;;;;;;4.33;3.67;;;;;23.76;49.83;102332.88;5076104;27;45433;-79
2022/10/18 02:31:29;;;;;;;;;3.33;3.33;;;;;23.84;49.24;102351.50;5076108;27;46229;-79
2022/10/18 02:34:24;;;;;;;;;4.00;4.00;;;;;23.84;49.46;102346.19;5069417;28;45713;-79
2022/10/18 02:36:52;;;;;;;;;4.00;4.00;;;;;23.84;49.67;102344.38;5077857;27;45454;-79
2022/10/18 02:39:42;;;;;;;;;3.00;3.00;;;;;23.85;49.35;102340.75;5078177;27;45339;-78
2022/10/18 02:42:10;;;;;;;;;4.00;4.00;;;;;23.85;49.54;102346.06;5078064;27;45967;-79
2022/10/18 02:44:37;;;;;;;;;4.00;4.00;;;;;23.86;49.64;102365.50;5078264;27;45520;-79
2022/10/18 02:47:04;;;;;;;;;3.00;3.00;;;;;23.85;49.59;102348.72;5077823;27;45362;-78
2022/10/18 02:49:29;;;;;;;;;4.33;4.33;;;;;23.84;49.42;102362.97;5078130;27;45467;-79
2022/10/18 02:51:54;;;;;;;;;4.00;4.00;;;;;23.85;49.75;102369.13;5092659;27;45978;-79
2022/10/18 02:54:20;;;;;;;;;3.00;3.00;;;;;23.85;49.58;102363.81;5087048;27;45352;-78
2022/10/18 02:56:45;;;;;;;;;3.33;2.00;;;;;23.85;49.79;102364.66;5078186;28;45382;-79
2022/10/18 02:59:11;;;;;;;;;3.00;3.00;;;;;23.87;49.20;102371.63;5079134;27;45426;-79
2022/10/18 03:01:36;;;;;;;;;5.00;3.67;;;;;23.87;49.94;102376.94;5077732;27;46280;-79
2022/10/18 03:04:02;;;;;;;;;5.33;4.33;;;;;23.78;49.47;102362.78;5077759;27;45349;-79
2022/10/18 03:06:28;;;;;;;;;4.00;4.00;;;;;23.85;49.40;102369.13;5078109;27;45346;-79
2022/10/18 03:08:53;;;;;;;;;3.33;3.00;;;;;23.82;49.78;102362.31;5077751;27;45487;-78
2022/10/18 03:11:19;;;;;;;;;4.33;4.33;;;;;23.84;49.49;102367.47;5077635;27;46313;-78
2022/10/18 03:13:44;;;;;;;;;3.67;3.00;;;;;23.77;49.57;102359.28;5077799;27;45545;-79
2022/10/18 03:16:11;;;;;;;;;2.33;2.33;;;;;23.83;49.56;102371.13;5077373;27;45346;-78
2022/10/18 03:18:36;;;;;;;;;2.67;2.67;;;;;23.85;49.39;102364.66;5077767;27;45638;-78
2022/10/18 03:21:05;;;;;;;;;2.33;2.33;;;;;23.85;49.58;102367.31;5077390;27;47255;-79
2022/10/18 03:23:31;;;;;;;;;4.00;4.00;;;;;23.85;49.13;102369.97;5077641;27;45338;-79
2022/10/18 03:25:56;;;;;;;;;3.33;2.33;;;;;23.85;49.41;102375.28;5077252;27;45437;-79
2022/10/18 03:28:21;;;;;;;;;3.33;2.67;;;;;23.86;49.54;102373.47;5077485;27;45526;-79
2022/10/18 03:30:47;;;;;;;;;2.00;2.00;;;;;23.85;49.36;102377.13;5077185;27;45379;-79
2022/10/18 03:33:12;;;;;;;;;2.00;2.00;;;;;23.78;49.93;102366.28;5077380;27;45258;-79
2022/10/18 03:35:37;;;;;;;;;4.00;3.67;;;;;23.85;49.88;102379.78;5077822;27;45332;-78
2022/10/18 03:38:03;;;;;;;;;2.00;2.00;;;;;23.83;49.62;102379.09;5077262;27;45374;-79
2022/10/18 03:40:28;;;;;;;;;3.00;3.00;;;;;23.84;49.66;102388.72;5077037;27;46973;-79
2022/10/18 03:42:53;;;;;;;;;2.00;2.00;;;;;23.84;49.46;102384.25;5077562;27;45201;-79
2022/10/18 03:45:18;;;;;;;;;3.00;3.00;;;;;23.85;49.59;102382.44;5076814;28;45288;-79
2022/10/18 03:47:44;;;;;;;;;4.00;4.00;;;;;23.78;49.77;102373.41;5077525;27;45438;-79
2022/10/18 03:50:09;;;;;;;;;4.00;4.00;;;;;23.84;49.81;102383.41;5076997;27;45706;-79
2022/10/18 03:52:34;;;;;;;;;3.33;3.00;;;;;23.85;49.42;102385.09;5077265;27;45398;-79
2022/10/18 03:55:00;;;;;;;;;3.67;2.67;;;;;23.85;49.43;102387.75;5077403;27;45444;-79
2022/10/18 03:57:25;;;;;;;;;2.67;2.67;;;;;23.80;49.41;102382.06;5076931;27;45390;-79
2022/10/18 03:59:51;;;;;;;;;4.00;3.00;;;;;23.78;49.50;102384.03;5076581;27;47202;-79
2022/10/18 04:02:17;;;;;;;;;5.00;3.67;;;;;23.82;49.27;102390.72;5076960;27;45582;-78
2022/10/18 04:04:42;;;;;;;;;3.00;3.00;;;;;23.85;49.70;102401.88;5077146;27;45409;-79
2022/10/18 04:07:08;;;;;;;;;3.00;3.00;;;;;23.82;49.56;102396.03;5076914;27;45439;-78
2022/10/18 04:09:33;;;;;;;;;3.33;3.33;;;;;23.87;49.68;102400.88;5062320;27;45550;-79
2022/10/18 04:11:58;;;;;;;;;3.00;2.00;;;;;23.86;49.56;102402.72;5076541;27;50909;-79
2022/10/18 04:14:24;;;;;;;;;3.33;3.33;;;;;23.80;49.68;102393.53;5076949;27;45396;-78
2022/10/18 04:16:49;;;;;;;;;2.00;2.00;;;;;23.86;49.73;102400.06;5076591;27;45375;-79
2022/10/18 04:19:15;;;;;;;;;5.00;3.33;;;;;23.86;49.42;102397.41;5109455;27;46894;-77
2022/10/18 04:21:40;;;;;;;;;3.00;3.00;;;;;23.87;50.08;102406.19;5076484;27;45364;-79
2022/10/18 04:24:05;;;;;;;;;5.00;4.00;;;;;23.86;49.94;102405.38;5076809;27;45354;-79
2022/10/18 04:26:31;;;;;;;;;2.67;2.67;;;;;23.86;49.34;102405.38;5076432;27;45313;-79
2022/10/18 04:28:56;;;;;;;;;3.33;3.33;;;;;23.86;49.50;102408.03;5076235;27;45292;-79
2022/10/18 04:31:22;;;;;;;;;2.00;2.00;;;;;23.84;49.36;102394.03;5076678;27;45289;-79
2022/10/18 04:33:47;;;;;;;;;4.00;3.00;;;;;23.79;49.70;102388.34;5076640;27;45282;-79
2022/10/18 04:36:12;;;;;;;;;4.33;3.67;;;;;23.86;49.51;102405.38;5076533;27;45469;-78
2022/10/18 04:38:38;;;;;;;;;3.00;3.00;;;;;23.85;49.62;102399.22;5075542;27;45347;-79
2022/10/18 04:41:03;;;;;;;;;3.33;3.00;;;;;23.87;49.51;102395.56;5076675;27;45367;-79
2022/10/18 04:43:29;;;;;;;;;2.33;2.00;;;;;23.74;49.43;102375.53;5075889;27;45255;-78
2022/10/18 04:45:54;;;;;;;;;4.67;3.67;;;;;23.77;49.55;102383.22;5076478;27;45400;-78
2022/10/18 04:48:20;;;;;;;;;3.33;3.33;;;;;23.85;49.73;102396.56;5076477;27;45393;-79
2022/10/18 04:50:49;;;;;;;;;6.00;4.00;;;;;23.84;49.44;102397.53;5076177;27;45341;-79
2022/10/18 04:53:16;;;;;;;;;4.67;3.00;;;;;23.85;49.64;102407.19;5076457;27;45334;-79
2022/10/18 04:55:46;;;;;;;;;3.00;3.00;;;;;23.85;49.59;102403.69;5076224;28;45327;-78
2022/10/18 04:58:12;;;;;;;;;2.00;2.00;;;;;23.83;49.99;102409.19;5075465;27;46271;-79
2022/10/18 05:00:39;;;;;;;;;3.33;2.33;;;;;23.84;49.53;102418.81;5075903;27;45401;-79
2022/10/18 05:03:04;;;;;;;;;4.00;4.00;;;;;23.85;49.63;102420.47;5075541;27;45357;-75
2022/10/18 05:05:29;;;;;;;;;3.67;3.00;;;;;23.85;49.56;102422.28;5075658;27;45399;-75
2022/10/18 05:07:55;;;;;;;;;2.67;2.67;;;;;23.84;49.68;102425.94;5073014;27;45526;-75
2022/10/18 05:10:20;;;;;;;;;4.00;3.00;;;;;23.85;49.66;102424.97;5079829;27;45356;-75
2022/10/18 05:12:45;;;;;;;;;2.33;2.33;;;;;23.82;49.69;102412.81;5075408;27;45442;-73
2022/10/18 05:15:11;;;;;;;;;3.67;2.00;;;;;23.85;50.06;102420.47;5075628;27;45622;-74
2022/10/18 05:17:36;;;;;;;;;3.00;3.00;;;;;23.88;49.79;102418.50;5075979;27;45307;-74
2022/10/18 05:20:02;;;;;;;;;2.00;2.00;;;;;23.87;49.85;102417.66;5075129;27;48614;-74
2022/10/18 05:22:27;;;;;;;;;4.00;4.00;;;;;23.81;49.65;102405.00;5075943;27;45398;-75
2022/10/18 05:24:53;;;;;;;;;4.00;4.00;;;;;23.88;50.04;102413.19;5075201;27;51752;-74
2022/10/18 05:27:18;;;;;;;;;2.67;2.67;;;;;23.89;50.00;102413.00;5075050;27;47011;-75
2022/10/18 05:29:43;;;;;;;;;4.00;4.00;;;;;23.89;50.04;102421.00;5075606;27;45337;-74
2022/10/18 05:32:09;;;;;;;;;3.00;3.00;;;;;23.85;50.10;102415.16;5075610;27;45391;-73
2022/10/18 05:34:34;;;;;;;;;4.67;3.67;;;;;23.90;50.33;102424.50;5075603;27;45582;-75
2022/10/18 05:37:00;;;;;;;;;4.33;2.33;;;;;23.90;50.24;102428.00;5075095;27;45490;-73
2022/10/18 05:39:25;;;;;;;;;2.33;2.33;;;;;23.89;50.34;102425.50;5075420;28;45280;-74
2022/10/18 05:41:50;;;;;;;;;4.00;3.00;;;;;23.93;50.25;102426.84;5074990;27;45342;-83
2022/10/18 05:44:16;;;;;;;;;2.33;2.33;;;;;23.95;50.46;102427.50;5075774;27;45348;-79
2022/10/18 05:46:41;;;;;;;;;3.33;3.33;;;;;23.88;50.00;102421.16;5075088;27;47156;-78
2022/10/18 05:49:08;;;;;;;;;3.33;3.33;;;;;23.95;49.81;102436.34;5077220;27;45274;-79
2022/10/18 05:51:33;;;;;;;;;3.00;3.00;;;;;23.94;49.96;102442.63;5079361;27;45397;-79
2022/10/18 05:53:59;;;;;;;;;3.00;3.00;;;;;23.94;49.91;102439.97;5078998;27;45273;-79
2022/10/18 05:56:25;;;;;;;;;2.00;2.00;;;;;23.82;50.08;102427.91;5078682;27;46365;-79
2022/10/18 05:58:50;;;;;;;;;2.33;2.33;;;;;23.80;49.95;102424.59;5078660;27;45496;-79
2022/10/18 06:01:16;;;;;;;;;4.00;4.00;;;;;23.94;49.87;102442.63;5079043;27;45307;-79
2022/10/18 06:03:41;;;;;;;;;2.00;2.00;;;;;23.94;50.40;102441.81;5079021;27;45298;-79
2022/10/18 06:06:09;;;;;;;;;2.00;2.00;;;;;23.93;50.40;102438.31;5078514;27;47278;-80
2022/10/18 06:08:36;;;;;;;;;3.00;3.00;;;;;23.94;50.14;102439.16;5070245;27;45406;-79
2022/10/18 06:11:10;;;;;;;;;3.00;3.00;;;;;23.92;50.33;102441.94;5072348;27;45418;-80
2022/10/18 06:13:42;;;;;;;;;3.67;3.67;;;;;23.92;49.93;102444.59;5078669;27;45478;-79
2022/10/18 06:16:08;;;;;;;;;4.00;4.00;;;;;23.92;50.09;102444.59;5078261;27;46299;-80
2022/10/18 06:18:33;;;;;;;;;2.00;2.00;;;;;23.93;50.10;102453.44;5078754;27;45294;-79
2022/10/18 06:20:59;;;;;;;;;5.00;3.00;;;;;23.90;50.12;102446.59;5078558;27;45381;-73
2022/10/18 06:23:26;;;;;;;;;4.00;3.00;;;;;23.81;50.05;102437.72;5078405;27;45386;-77
2022/10/18 06:25:51;;;;;;;;;4.00;2.00;;;;;23.91;50.08;102450.94;5077957;27;45980;-75
2022/10/18 06:28:17;;;;;;;;;3.00;2.00;;;;;23.91;50.14;102440.31;5078321;27;45364;-76
2022/10/18 06:30:43;;;;;;;;;3.00;3.00;;;;;23.87;50.06;102440.75;5078492;27;45346;-74
2022/10/18 06:33:10;;;;;;;;;3.00;2.00;;;;;23.88;49.81;102445.91;5078970;27;45386;-79
2022/10/18 06:35:36;;;;;;;;;3.00;2.00;;;;;23.90;50.09;102449.25;5078071;27;46166;-74
2022/10/18 06:38:01;;;;;;;;;3.00;2.67;;;;;23.91;50.29;102452.75;5077718;27;45730;-75
2022/10/18 06:40:27;;;;;;;;;2.33;2.33;;;;;23.92;50.19;102452.59;5110908;27;45392;-75
2022/10/18 06:42:52;;;;;;;;;2.33;2.33;;;;;23.92;50.15;102457.06;5078301;27;45613;-75
2022/10/18 06:45:17;;;;;;;;;3.00;2.67;;;;;23.92;50.40;102454.41;5080536;27;46162;-75
2022/10/18 06:47:43;;;;;;;;;4.00;3.00;;;;;23.94;50.06;102468.41;5078541;27;45429;-75
2022/10/18 06:50:10;;;;;;;;;5.00;4.00;;;;;23.94;49.75;102468.41;5078173;27;45178;-76
2022/10/18 06:52:35;;;;;;;;;1.67;1.67;;;;;23.93;50.07;102470.22;5078259;27;45391;-75
2022/10/18 06:55:00;;;;;;;;;4.00;2.00;;;;;23.93;49.73;102467.56;5077389;27;46146;-75
2022/10/18 06:57:26;;;;;;;;;3.00;2.00;;;;;23.94;50.06;102460.44;5077835;27;45354;-75
2022/10/18 06:59:51;;;;;;;;;3.33;3.00;;;;;23.93;50.05;102469.38;5077493;27;45418;-75
2022/10/18 07:02:17;;;;;;;;;4.00;3.00;;;;;23.94;50.03;102479.03;5078022;27;45378;-74
2022/10/18 07:04:42;;;;;;;;;2.67;2.67;;;;;23.92;49.98;102473.84;5077767;27;46155;-75
2022/10/18 07:07:08;;;;;;;;;5.00;3.00;;;;;23.92;50.06;102476.50;5077842;27;45362;-75
2022/10/18 07:09:33;;;;;;;;;2.33;2.33;;;;;23.92;50.12;102475.66;5077345;27;45243;-75
2022/10/18 07:11:58;;;;;;;;;2.00;2.00;;;;;23.89;50.21;102468.84;5077515;28;49300;-75
2022/10/18 07:14:24;;;;;;;;;3.00;3.00;;;;;23.90;49.82;102467.84;5077982;27;46118;-74
2022/10/18 07:16:49;;;;;;;;;3.67;2.67;;;;;23.89;49.90;102465.38;5077526;27;45276;-75
2022/10/18 07:19:15;;;;;;;;;3.00;3.00;;;;;23.92;50.31;102484.47;5077817;27;45359;-74
2022/10/18 07:21:40;;;;;;;;;3.00;3.00;;;;;23.92;49.84;102487.13;5077674;27;45494;-75
2022/10/18 07:24:05;;;;;;;;;2.00;2.00;;;;;23.91;50.04;102489.97;5077188;27;46936;-75
2022/10/18 07:26:33;;;;;;;;;3.00;3.00;;;;;23.91;50.30;102496.13;5110306;27;45529;-75
2022/10/18 07:29:00;;;;;;;;;3.00;3.00;;;;;23.91;49.70;102489.97;5077713;27;45439;-75
2022/10/18 07:31:27;;;;;;;;;2.00;2.00;;;;;23.91;49.68;102492.63;5077373;27;45515;-74
2022/10/18 07:33:52;;;;;;;;;3.00;3.00;;;;;23.91;49.78;102503.25;5077170;27;46183;-76
2022/10/18 07:36:19;;;;;;;;;2.67;2.67;;;;;23.91;49.81;102517.38;5077188;27;45307;-75
2022/10/18 07:38:45;;;;;;;;;3.00;3.00;;;;;23.91;49.90;102514.72;5076933;27;45430;-75
2022/10/18 07:41:12;;;;;;;;;2.67;2.67;;;;;23.91;49.83;102509.41;5077357;27;45338;-74
2022/10/18 07:43:44;;;;;;;;;5.00;3.00;;;;;23.91;49.74;102517.38;5077132;27;46136;-75
2022/10/18 07:46:10;;;;;;;;;4.00;2.33;;;;;23.90;50.13;102510.38;5077038;27;45311;-75
2022/10/18 07:48:35;;;;;;;;;2.67;2.00;;;;;23.91;49.76;102524.53;5077046;27;45313;-74
2022/10/18 07:51:01;;;;;;;;;3.00;2.33;;;;;23.91;49.75;102521.88;5077557;27;45309;-75
2022/10/18 07:53:28;;;;;;;;;2.33;2.33;;;;;23.92;49.98;102521.69;5076317;27;48800;-75
2022/10/18 07:56:00;;;;;;;;;2.67;2.67;;;;;23.92;49.84;102521.69;5076863;27;45313;-74
2022/10/18 07:58:26;;;;;;;;;3.00;3.00;;;;;23.92;50.01;102528.84;5077181;27;45379;-75
2022/10/18 08:00:52;;;;;;;;;5.00;4.00;;;;;23.91;49.92;102517.38;5076651;27;45489;-75
2022/10/18 08:03:17;;;;;;;;;3.00;3.00;;;;;23.90;49.92;102517.53;5077015;27;46287;-75
2022/10/18 08:05:42;;;;;;;;;5.00;2.67;;;;;23.94;50.06;102527.69;5076592;27;45370;-74
2022/10/18 08:08:08;;;;;;;;;2.00;2.00;;;;;23.97;50.09;102529.22;5072552;27;45484;-75
2022/10/18 08:10:34;;;;;;;;;3.00;3.00;;;;;23.96;49.95;102538.19;5066754;27;45419;-75
2022/10/18 08:12:59;;;;;;;;;3.33;3.33;;;;;23.98;49.87;102554.81;5075352;27;46290;-74
2022/10/18 08:15:25;;;;;;;;;2.33;2.00;;;;;23.98;49.64;102538.88;5076517;27;45378;-75
2022/10/18 08:17:51;;;;;;;;;3.00;3.00;;;;;23.94;50.02;102540.97;5076613;27;45398;-74
2022/10/18 08:20:16;;;;;;;;;3.33;3.33;;;;;24.00;49.95;102555.50;5076225;27;45449;-74
2022/10/18 08:22:42;;;;;;;;;3.00;3.00;;;;;23.99;50.01;102553.00;5076490;27;45345;-74
2022/10/18 08:25:07;;;;;;;;;3.00;3.00;;;;;24.00;49.72;102546.69;5076412;27;45327;-75
2022/10/18 08:27:33;;;;;;;;;3.00;3.00;;;;;24.00;49.60;102547.53;5076825;27;45456;-74
2022/10/18 08:30:00;;;;;;;;;5.33;3.33;;;;;24.00;50.14;102549.34;5076351;27;45510;-75
2022/10/18 08:32:27;;;;;;;;;4.00;2.67;;;;;24.01;49.72;102548.38;5076243;27;46970;-75
2022/10/18 08:34:52;;;;;;;;;5.33;3.00;;;;;24.00;49.54;102555.50;5075998;27;45368;-74
2022/10/18 08:37:18;;;;;;;;;3.00;3.00;;;;;24.01;49.77;102557.19;5076035;27;45299;-74
2022/10/18 08:39:43;;;;;;;;;4.67;2.00;;;;;24.01;49.53;102554.53;5076642;27;45360;-75
2022/10/18 08:42:22;;;;;;;;;5.33;3.33;;;;;24.02;49.98;102556.19;5076077;27;49294;-75
2022/10/18 08:44:49;;;;;;;;;2.00;2.00;;;;;23.95;50.03;102536.50;5076205;27;45395;-74
2022/10/18 08:47:21;;;;;;;;;4.67;3.33;;;;;24.06;49.85;102551.41;5075927;27;45335;-74
2022/10/18 08:49:50;;;;;;;;;3.67;3.00;;;;;24.06;49.82;102546.09;5075952;27;45414;-74
2022/10/18 08:52:32;;;;;;;;;4.33;4.00;;;;;24.07;49.59;102542.44;5075785;27;46223;-75
2022/10/18 08:55:02;;;;;;;;;2.67;2.33;;;;;24.09;49.87;102548.44;5108833;27;45582;-74
2022/10/18 08:57:29;;;;;;;;;3.67;3.67;;;;;24.11;49.86;102554.44;5076162;27;45421;-75
2022/10/18 08:59:55;;;;;;;;;2.67;2.67;;;;;24.12;49.70;102550.81;5075919;27;45516;-76
2022/10/18 09:02:45;;;;;;;;;3.00;3.00;;;;;24.14;49.49;102547.97;5061614;27;46542;-75
2022/10/18 09:05:26;;;;;;;;;5.00;4.00;;;;;24.15;49.83;102545.16;5075836;27;45284;-75
2022/10/18 09:08:09;;;;;;;;;3.33;3.33;;;;;24.17;49.41;102550.34;5073956;27;45348;-75
2022/10/18 09:10:58;;;;;;;;;3.00;3.00;;;;;24.18;49.85;102542.19;5066114;28;45509;-76
2022/10/18 09:13:32;;;;;;;;;5.00;4.33;;;;;24.24;49.42;102547.88;5075428;27;46386;-75
2022/10/18 09:16:00;;;;;;;;;2.00;2.00;;;;;24.24;49.72;102540.75;5075404;27;45525;-75
2022/10/18 09:18:36;;;;;;;;;3.33;3.00;;;;;24.27;49.40;102547.63;5075363;27;45464;-74
2022/10/18 09:21:11;;;;;;;;;3.00;3.00;;;;;24.29;49.46;102550.94;5075788;27;45328;-76
2022/10/18 09:23:46;;;;;;;;;6.00;4.00;;;;;24.28;49.58;102551.94;5075151;27;46997;-75
2022/10/18 09:26:14;;;;;;;;;5.67;4.00;;;;;24.28;49.24;102554.59;5075697;27;45419;-75
2022/10/18 09:28:39;;;;;;;;;4.00;4.00;;;;;24.29;49.72;102550.94;5075359;27;45492;-75
2022/10/18 09:31:23;;;;;;;;;3.67;3.67;;;;;24.28;49.47;102546.59;5075719;27;45417;-75
2022/10/18 09:33:55;;;;;;;;;6.00;4.00;;;;;24.28;49.44;102533.31;5075081;27;46168;-75
2022/10/18 09:36:24;;;;;;;;;3.67;3.00;;;;;24.27;49.50;102535.16;5075071;27;45570;-74
2022/10/18 09:38:58;;;;;;;;;4.00;2.67;;;;;24.27;49.49;102537.81;5075281;27;45393;-75
2022/10/18 09:41:49;;;;;;;;;8.00;2.67;;;;;24.24;49.16;102539.91;5075245;27;45465;-75
2022/10/18 09:44:21;;;;;;;;;2.33;2.00;;;;;24.27;49.39;102548.47;5072988;28;46208;-75
2022/10/18 09:46:56;;;;;;;;;4.33;3.00;;;;;24.27;49.55;102543.13;5072790;27;45372;-75
2022/10/18 09:49:27;;;;;;;;;4.33;3.00;;;;;24.21;49.26;102532.22;5072618;27;45404;-75
2022/10/18 09:51:53;;;;;;;;;2.00;2.00;;;;;24.26;49.37;102549.44;5073195;28;45443;-75
2022/10/18 09:54:21;;;;;;;;;2.00;2.00;;;;;24.25;49.49;102539.75;5072984;27;46280;-75
2022/10/18 09:56:53;;;;;;;;;3.33;3.33;;;;;24.24;49.82;102539.91;5072856;28;45439;-74
2022/10/18 09:59:31;;;;;;;;;4.00;4.00;;;;;24.24;49.38;102550.53;5073001;28;45381;-75
2022/10/18 10:01:56;;;;;;;;;2.67;2.67;;;;;24.17;49.24;102547.69;5072593;27;45479;-76
2022/10/18 10:04:22;;;;;;;;;5.00;4.00;;;;;24.20;49.48;102544.69;5072652;28;45348;-75
2022/10/18 10:06:54;;;;;;;;;8.67;4.00;;;;;24.22;49.37;102555.19;5073017;28;45445;-75
2022/10/18 10:09:56;;;;;;;;;4.00;3.00;;;;;24.20;49.22;102554.50;5072860;27;45494;-75
2022/10/18 10:12:31;;;;;;;;;5.00;3.33;;;;;24.20;49.49;102563.31;5073086;27;45313;-75
2022/10/18 10:15:24;;;;;;;;;3.33;3.00;;;;;24.20;49.60;102559.84;5072568;27;47303;-75
2022/10/18 10:17:55;;;;;;;;;2.00;2.00;;;;;24.18;49.26;102560.81;5072429;28;45343;-75
2022/10/18 10:20:23;;;;;;;;;5.33;4.00;;;;;24.17;49.59;102567.09;5071299;28;45397;-75
2022/10/18 10:22:51;;;;;;;;;4.00;4.00;;;;;24.16;49.42;102565.44;5067853;27;45395;-75
2022/10/18 10:25:30;;;;;;;;;5.00;3.00;;;;;24.16;49.52;102573.44;5074655;27;47064;-75
2022/10/18 10:28:02;;;;;;;;;5.67;3.33;;;;;24.16;49.55;102573.44;5074547;27;45433;-75
2022/10/18 10:30:31;;;;;;;;;4.33;3.00;;;;;24.15;49.73;102574.41;5074992;27;45377;-76
2022/10/18 10:32:56;;;;;;;;;5.67;3.67;;;;;24.15;49.29;102557.59;5074555;27;45265;-75
2022/10/18 10:35:35;;;;;;;;;6.67;5.00;;;;;24.16;49.18;102567.28;5075141;27;45387;-77
2022/10/18 10:38:01;;;;;;;;;3.00;3.00;;;;;24.11;49.68;102553.59;5078078;27;45525;-76
2022/10/18 10:40:30;;;;;;;;;4.00;2.67;;;;;24.14;49.42;102571.91;5078131;27;45309;-77
2022/10/18 10:43:06;;;;;;;;;3.00;3.00;;;;;24.13;49.37;102563.09;5078255;27;45322;-76
2022/10/18 10:45:36;;;;;;;;;3.33;3.00;;;;;24.12;49.23;102574.75;5077563;27;45423;-76
2022/10/18 10:48:06;;;;;;;;;3.33;2.33;;;;;24.12;49.44;102571.22;5077780;27;45398;-74
2022/10/18 10:50:48;;;;;;;;;5.67;3.00;;;;;24.11;49.60;102562.41;5078175;27;45426;-76
2022/10/18 10:53:26;;;;;;;;;3.00;2.00;;;;;24.13;49.51;102564.91;5078123;27;45248;-76
2022/10/18 10:55:55;;;;;;;;;2.33;2.33;;;;;24.07;49.64;102555.75;5077657;27;47598;-76
2022/10/18 10:58:21;;;;;;;;;4.00;2.67;;;;;24.12;49.25;102556.13;5077772;27;45338;-76
2022/10/18 11:00:46;;;;;;;;;6.67;3.00;;;;;24.12;49.69;102550.81;5077557;27;45492;-76
2022/10/18 11:03:17;;;;;;;;;4.00;4.00;;;;;24.13;49.16;102551.63;5077851;27;45718;-77
2022/10/18 11:05:44;;;;;;;;;4.33;4.33;;;;;24.12;49.77;102558.78;5077711;27;47149;-75
2022/10/18 11:08:12;;;;;;;;;3.00;2.00;;;;;24.00;49.22;102523.59;5073176;27;45248;-74
2022/10/18 11:10:54;;;;;;;;;2.00;2.00;;;;;24.12;49.03;102545.47;5068290;27;45236;-77
2022/10/18 11:13:43;;;;;;;;;2.00;2.00;;;;;24.13;49.31;102549.78;5077568;27;45393;-76
2022/10/18 11:16:24;;;;;;;;;1.33;1.33;;;;;24.13;49.14;102547.13;5077146;27;46260;-75
2022/10/18 11:18:54;;;;;;;;;5.00;4.00;;;;;24.12;49.08;102541.97;5065498;27;45333;-75
2022/10/18 11:21:26;;;;;;;;;5.00;4.67;;;;;24.13;49.49;102538.31;5077363;27;45514;-75
2022/10/18 11:23:52;;;;;;;;;3.33;2.33;;;;;24.12;49.68;102534.84;5077767;27;45562;-75
2022/10/18 11:26:35;;;;;;;;;3.00;3.00;;;;;24.12;49.11;102531.34;5077505;27;45370;-76
2022/10/18 11:29:37;;;;;;;;;3.00;3.00;;;;;24.13;49.71;102525.03;5065189;27;45479;-76
2022/10/18 11:32:33;;;;;;;;;3.33;3.00;;;;;24.12;49.12;102524.22;5077239;27;45485;-75
2022/10/18 11:35:20;;;;;;;;;3.00;3.00;;;;;24.13;49.46;102522.38;5077265;27;45697;-75